Time;durP1;ratioP1;P1;durP2;ratioP2;P2;SDS_P1;SDS_P2;PMS_P1;PMS_P2;Temp;Humidity;BMP_temperature;BMP_pressure;BME280_temperature;BME280_humidity;BME280_pressure;Samples;Min_cycle;Max_cycle;Signal;HPM_P1;HPM_P2
2023/06/15 00:02:29;;;;;;;13.40;8.10;;;;;;;13.61;86.79;100541.77;102449;279;105130;-58
2023/06/15 00:05:09;;;;;;;11.70;8.40;;;;;;;13.68;86.79;100537.98;102441;279;114523;-57
2023/06/15 00:07:49;;;;;;;9.50;7.50;;;;;;;13.74;86.65;100537.81;102401;279;96850;-57
2023/06/15 00:10:25;;;;;;;9.10;8.00;;;;;;;13.75;86.85;100537.73;102433;279;97361;-59
2023/06/15 00:13:00;;;;;;;9.90;8.60;;;;;;;13.75;86.82;100535.06;102397;279;121080;-60
2023/06/15 00:15:36;;;;;;;10.30;8.00;;;;;;;13.77;86.88;100525.83;102407;279;105667;-59
2023/06/15 00:18:17;;;;;;;9.00;7.60;;;;;;;13.80;87.14;100523.71;102369;279;114245;-59
2023/06/15 00:20:56;;;;;;;8.80;7.90;;;;;;;13.84;87.10;100517.74;102397;279;95246;-54
2023/06/15 00:23:29;;;;;;;8.70;7.60;;;;;;;13.86;86.92;100515.08;102400;279;98171;-57
2023/06/15 00:26:03;;;;;;;9.00;7.30;;;;;;;13.88;87.05;100510.77;102400;279;120034;-60
2023/06/15 00:28:39;;;;;;;8.90;7.10;;;;;;;13.86;87.15;100507.84;102370;279;105243;-60
2023/06/15 00:31:18;;;;;;;9.60;7.50;;;;;;;13.87;87.16;100506.84;102438;279;113337;-56
2023/06/15 00:34:00;;;;;;;9.70;7.40;;;;;;;13.85;86.98;100510.34;102352;279;96280;-57
2023/06/15 00:36:37;;;;;;;9.20;6.90;;;;;;;13.83;87.00;100516.02;102436;279;96867;-55
2023/06/15 00:39:13;;;;;;;8.50;7.50;;;;;;;13.81;86.89;100516.36;102372;279;120776;-57
2023/06/15 00:41:52;;;;;;;10.20;7.00;;;;;;;13.76;86.80;100520.23;102461;279;105175;-55
2023/06/15 00:44:28;;;;;;;9.50;7.20;;;;;;;13.73;86.77;100517.23;102375;279;113385;-56
2023/06/15 00:47:04;;;;;;;9.00;7.70;;;;;;;13.69;86.75;100514.26;102426;279;97372;-59
2023/06/15 00:49:44;;;;;;;8.30;7.40;;;;;;;13.62;86.89;100510.14;102415;279;97079;-59
2023/06/15 00:52:22;;;;;;;8.40;7.60;;;;;;;13.66;87.17;100508.20;102431;279;120682;-56
2023/06/15 00:54:58;;;;;;;8.70;7.30;;;;;;;13.69;87.09;100508.52;102382;279;104793;-56
2023/06/15 00:57:36;;;;;;;9.20;7.50;;;;;;;13.65;87.16;100510.83;102407;279;113751;-56
2023/06/15 01:00:12;;;;;;;7.80;6.70;;;;;;;13.63;87.21;100509.48;102423;279;96663;-58
2023/06/15 01:02:48;;;;;;;7.80;6.80;;;;;;;13.61;87.19;100507.02;102392;279;96252;-56
2023/06/15 01:05:22;;;;;;;8.60;7.50;;;;;;;13.60;87.03;100502.09;102405;279;120918;-57
2023/06/15 01:08:04;;;;;;;7.70;6.90;;;;;;;13.58;87.02;100501.25;102405;279;104796;-55
2023/06/15 01:10:42;;;;;;;8.00;7.10;;;;;;;13.55;87.16;100504.16;102387;279;115298;-56
2023/06/15 01:13:20;;;;;;;8.90;7.90;;;;;;;13.48;87.12;100512.00;102339;279;96321;-54
2023/06/15 01:16:01;;;;;;;8.80;7.70;;;;;;;13.48;87.13;100514.63;102271;279;97111;-57
2023/06/15 01:18:47;;;;;;;8.90;7.20;;;;;;;13.49;87.21;100515.34;102387;279;120305;-56
2023/06/15 01:21:21;;;;;;;8.80;7.60;;;;;;;13.47;87.40;100516.88;102431;279;105499;-58
2023/06/15 01:24:11;;;;;;;10.10;7.90;;;;;;;13.50;87.47;100517.77;102439;279;114280;-58
2023/06/15 01:26:46;;;;;;;10.80;8.30;;;;;;;13.57;87.68;100521.71;102481;279;97948;-60
2023/06/15 01:29:29;;;;;;;10.60;8.40;;;;;;;13.65;87.84;100521.13;102503;279;97957;-59
2023/06/15 01:32:02;;;;;;;13.20;8.70;;;;;;;13.71;87.80;100520.69;102515;279;120780;-59
2023/06/15 01:34:43;;;;;;;11.90;9.00;;;;;;;13.75;87.99;100524.91;102443;279;105886;-60
2023/06/15 01:37:19;;;;;;;12.70;8.60;;;;;;;13.78;87.81;100527.14;102398;279;114359;-59
2023/06/15 01:39:51;;;;;;;10.70;8.40;;;;;;;13.81;87.93;100518.40;102431;279;97544;-59
2023/06/15 01:42:27;;;;;;;9.80;8.40;;;;;;;13.84;87.91;100519.07;102408;279;97686;-56
2023/06/15 01:45:00;;;;;;;9.90;8.20;;;;;;;13.85;87.89;100515.79;102388;279;119334;-56
2023/06/15 01:47:38;;;;;;;10.70;7.90;;;;;;;13.82;88.11;100515.89;102429;279;107276;-56
2023/06/15 01:50:12;;;;;;;9.70;7.90;;;;;;;13.82;88.16;100516.98;102421;279;113973;-57
2023/06/15 01:52:46;;;;;;;;;;;;;;;13.81;88.17;100512.64;102413;279;96995;-56
2023/06/15 01:55:25;;;;;;;8.70;7.70;;;;;;;13.80;88.21;100512.77;102405;279;97276;-57
2023/06/15 01:58:06;;;;;;;9.60;7.90;;;;;;;13.83;88.11;100510.88;102423;279;120602;-58
2023/06/15 02:00:42;;;;;;;10.20;7.30;;;;;;;13.86;88.43;100511.55;102402;279;105753;-61
2023/06/15 02:03:18;;;;;;;9.50;7.90;;;;;;;13.87;88.59;100508.97;102392;279;112948;-60
2023/06/15 02:06:01;;;;;;;9.30;7.90;;;;;;;13.87;88.41;100506.34;102435;279;95493;-62
2023/06/15 02:08:37;;;;;;;9.50;7.60;;;;;;;13.89;88.46;100501.16;102426;279;97346;-61
2023/06/15 02:11:19;;;;;;;11.30;7.20;;;;;;;13.92;88.64;100492.34;102471;279;120617;-58
2023/06/15 02:13:59;;;;;;;10.70;8.60;;;;;;;13.95;88.86;100491.05;102481;279;104722;-58
2023/06/15 02:16:41;;;;;;;11.60;7.90;;;;;;;13.98;88.84;100492.88;102499;279;113233;-61
2023/06/15 02:19:21;;;;;;;14.60;10.90;;;;;;;14.00;88.89;100494.76;102450;279;97365;-61
2023/06/15 02:22:00;;;;;;;15.40;11.20;;;;;;;14.05;88.87;100492.88;102388;279;97697;-56
2023/06/15 02:24:35;;;;;;;15.90;11.50;;;;;;;14.07;88.81;100494.60;102376;279;120949;-58
2023/06/15 02:27:09;;;;;;;13.70;10.20;;;;;;;14.09;88.66;100499.87;102380;280;104118;-61
2023/06/15 02:29:41;;;;;;;15.70;11.10;;;;;;;14.10;88.85;100502.95;102347;280;112997;-60
2023/06/15 02:32:34;;;;;;;14.80;10.20;;;;;;;14.11;88.76;100505.71;102377;280;96251;-58
2023/06/15 02:35:11;;;;;;;14.80;9.90;;;;;;;14.10;88.87;100510.48;102345;280;97545;-57
2023/06/15 02:37:46;;;;;;;15.70;11.10;;;;;;;14.07;88.82;100510.98;102374;280;121289;-57
2023/06/15 02:40:17;;;;;;;9.60;8.30;;;;;;;14.08;88.85;100511.23;102418;280;103864;-57
2023/06/15 02:42:57;;;;;;;10.60;8.90;;;;;;;14.09;88.91;100509.35;102363;280;114464;-57
2023/06/15 02:45:30;;;;;;;11.40;8.60;;;;;;;14.07;88.76;100508.80;102386;280;96191;-56
2023/06/15 02:48:05;;;;;;;10.70;8.20;;;;;;;14.04;88.79;100512.73;102356;280;97135;-54
2023/06/15 02:50:37;;;;;;;13.00;8.60;;;;;;;14.01;88.81;100514.02;102381;280;121452;-59
2023/06/15 02:53:12;;;;;;;10.20;7.90;;;;;;;14.04;88.80;100513.65;102378;280;106229;-58
2023/06/15 02:55:47;;;;;;;9.50;8.40;;;;;;;14.05;88.96;100515.62;102400;280;114418;-56
2023/06/15 02:58:24;;;;;;;9.40;8.30;;;;;;;14.06;88.98;100513.69;102370;280;97773;-57
2023/06/15 03:01:07;;;;;;;10.40;8.90;;;;;;;14.07;89.00;100512.31;102409;280;96871;-59
2023/06/15 03:03:42;;;;;;;11.10;7.80;;;;;;;14.05;88.87;100520.30;102355;273;120049;-60
2023/06/15 03:06:18;;;;;;;9.90;8.10;;;;;;;14.07;89.01;100518.96;102307;280;104741;-59
2023/06/15 03:08:52;;;;;;;9.90;7.90;;;;;;;14.08;89.03;100516.33;102284;280;114370;-60
2023/06/15 03:11:34;;;;;;;9.20;8.00;;;;;;;14.10;89.15;100512.58;102285;269;96392;-56
2023/06/15 03:14:10;;;;;;;9.10;8.20;;;;;;;14.10;89.12;100519.46;102312;280;97520;-56
2023/06/15 03:16:46;;;;;;;9.50;7.70;;;;;;;14.10;89.21;100522.90;102321;280;120421;-56
2023/06/15 03:19:20;;;;;;;9.70;8.60;;;;;;;14.13;89.33;100517.54;101862;280;745399;-57
2023/06/15 03:21:57;;;;;;;8.60;7.70;;;;;;;14.13;89.13;100520.46;102310;280;112862;-60
2023/06/15 03:24:32;;;;;;;9.50;7.50;;;;;;;14.14;89.40;100517.63;102298;280;96251;-60
2023/06/15 03:27:10;;;;;;;9.30;8.00;;;;;;;14.17;89.46;100513.10;102245;281;96566;-56
2023/06/15 03:29:49;;;;;;;10.00;8.30;;;;;;;14.18;89.26;100510.39;102281;280;121682;-55
2023/06/15 03:32:27;;;;;;;9.00;8.10;;;;;;;14.19;89.55;100505.52;102298;280;103447;-60
2023/06/15 03:35:12;;;;;;;9.30;8.00;;;;;;;14.19;89.44;100510.02;102305;280;113169;-59
2023/06/15 03:37:46;;;;;;;10.00;7.90;;;;;;;14.19;89.52;100506.75;102267;280;96845;-59
2023/06/15 03:40:24;;;;;;;9.00;8.20;;;;;;;14.23;89.47;100506.17;102317;280;97960;-60
2023/06/15 03:43:01;;;;;;;9.70;8.70;;;;;;;14.23;89.58;100504.70;102306;280;119672;-61
2023/06/15 03:45:35;;;;;;;8.90;8.00;;;;;;;14.24;89.64;100502.70;102301;280;106211;-56
2023/06/15 03:48:20;;;;;;;;;;;;;;;14.33;89.97;100496.59;102296;280;113903;-56
2023/06/15 03:50:56;;;;;;;13.20;8.50;;;;;;;14.37;89.93;100497.61;102288;280;95863;-56
2023/06/15 03:53:32;;;;;;;12.00;7.90;;;;;;;14.42;89.89;100495.10;102290;280;97892;-55
2023/06/15 03:56:07;;;;;;;9.20;8.30;;;;;;;14.48;89.96;100497.97;102288;281;120979;-60
2023/06/15 03:58:41;;;;;;;9.80;8.40;;;;;;;14.54;90.11;100495.20;102147;281;106041;-60
2023/06/15 04:01:14;;;;;;;;;;;;;;;14.62;90.24;100495.25;102337;280;113677;-56
2023/06/15 04:03:51;;;;;;;10.60;8.80;;;;;;;14.68;90.23;100504.66;102282;269;96880;-56
2023/06/15 04:06:23;;;;;;;9.50;8.40;;;;;;;14.72;89.92;100508.06;102314;280;97643;-56
2023/06/15 04:09:05;;;;;;;10.60;9.40;;;;;;;14.77;89.79;100500.48;102283;280;120072;-56
2023/06/15 04:11:42;;;;;;;10.30;9.20;;;;;;;14.78;89.95;100501.20;102310;280;104156;-56
2023/06/15 04:14:47;;;;;;;12.30;9.90;;;;;;;14.79;90.04;100499.64;102274;280;114207;-56
2023/06/15 04:17:48;;;;;;;11.80;9.30;;;;;;;14.84;89.94;100495.95;102232;280;95245;-56
2023/06/15 04:20:23;;;;;;;9.80;8.80;;;;;;;15.11;90.28;100496.45;102267;281;97640;-60
2023/06/15 04:22:59;;;;;;;11.00;9.90;;;;;;;15.48;90.04;100497.42;102265;280;121552;-59
2023/06/15 04:25:35;;;;;;;12.50;10.20;;;;;;;15.64;89.79;100499.72;102272;280;104467;-57
2023/06/15 04:28:12;;;;;;;11.30;10.10;;;;;;;15.70;89.60;100496.27;102269;280;114970;-56
2023/06/15 04:30:52;;;;;;;12.20;10.60;;;;;;;15.80;89.43;100497.00;102313;280;96270;-58
2023/06/15 04:33:26;;;;;;;11.50;10.10;;;;;;;15.95;89.49;100496.80;102309;281;97844;-59
2023/06/15 04:36:00;;;;;;;13.40;11.00;;;;;;;15.94;89.29;100499.83;102308;280;120729;-59
2023/06/15 04:38:46;;;;;;;12.40;10.10;;;;;;;15.88;88.78;100503.93;102282;281;105760;-60
2023/06/15 04:41:22;;;;;;;11.20;9.70;;;;;;;15.72;88.60;100505.70;102321;280;113656;-57
2023/06/15 04:44:03;;;;;;;12.80;9.80;;;;;;;15.61;88.71;100507.15;102254;280;95087;-56
2023/06/15 04:46:40;;;;;;;13.40;11.00;;;;;;;15.52;88.77;100510.93;102310;281;98426;-60
2023/06/15 04:49:17;;;;;;;11.60;9.60;;;;;;;15.45;88.73;100506.81;102319;280;120030;-58
2023/06/15 04:51:50;;;;;;;10.60;9.50;;;;;;;15.40;88.63;100501.97;102303;281;106162;-56
2023/06/15 04:54:29;;;;;;;13.20;9.60;;;;;;;15.36;88.77;100504.58;102288;280;114920;-56
2023/06/15 04:57:08;;;;;;;13.70;10.30;;;;;;;15.30;88.81;100504.27;102356;280;95869;-66
2023/06/15 04:59:43;;;;;;;17.00;10.60;;;;;;;15.28;88.80;100502.12;102332;281;95950;-57
2023/06/15 05:02:23;;;;;;;13.40;10.00;;;;;;;15.21;88.95;100504.23;102342;280;119695;-59
2023/06/15 05:04:59;;;;;;;15.90;10.60;;;;;;;15.19;88.83;100506.46;102415;281;105955;-59
2023/06/15 05:07:40;;;;;;;11.60;9.70;;;;;;;15.18;88.77;100510.66;102344;280;114426;-60
2023/06/15 05:10:12;;;;;;;11.80;8.50;;;;;;;15.18;88.81;100507.61;102166;281;97773;-59
2023/06/15 05:12:59;;;;;;;9.40;8.10;;;;;;;15.16;88.75;100508.30;102275;280;98488;-61
2023/06/15 05:15:39;;;;;;;10.90;8.40;;;;;;;15.15;88.71;100506.58;102285;280;120422;-59
2023/06/15 05:18:16;;;;;;;12.00;8.30;;;;;;;15.18;88.64;100505.40;102325;273;105755;-60
2023/06/15 05:20:53;;;;;;;10.30;8.40;;;;;;;15.22;88.80;100504.98;102250;281;115099;-58
2023/06/15 05:23:32;;;;;;;9.50;8.40;;;;;;;15.33;89.01;100504.89;102331;280;95905;-57
2023/06/15 05:26:04;;;;;;;10.30;8.00;;;;;;;15.45;88.99;100511.92;102292;280;95593;-57
2023/06/15 05:28:46;;;;;;;10.60;9.00;;;;;;;15.58;89.19;100512.15;102299;280;119488;-56
2023/06/15 05:31:25;;;;;;;11.40;9.50;;;;;;;15.68;89.48;100520.27;102342;280;105179;-56
2023/06/15 05:34:00;;;;;;;12.80;9.00;;;;;;;15.84;89.25;100524.98;102296;280;114525;-57
2023/06/15 05:36:39;;;;;;;10.50;8.80;;;;;;;15.98;89.37;100531.86;102316;280;96040;-60
2023/06/15 05:39:20;;;;;;;11.50;9.70;;;;;;;16.13;89.28;100532.47;102364;280;96139;-61
2023/06/15 05:42:00;;;;;;;11.00;9.90;;;;;;;16.21;89.11;100531.89;102321;280;119268;-59
2023/06/15 05:44:40;;;;;;;11.50;10.10;;;;;;;16.36;88.86;100530.96;102304;281;105473;-58
2023/06/15 05:47:21;;;;;;;11.40;10.00;;;;;;;16.49;88.53;100530.39;102273;280;113663;-57
2023/06/15 05:50:05;;;;;;;10.40;9.30;;;;;;;16.69;88.13;100528.45;102296;280;97399;-57
2023/06/15 05:52:44;;;;;;;10.70;9.60;;;;;;;16.93;88.14;100527.45;102310;269;97642;-59
2023/06/15 05:55:19;;;;;;;11.70;10.00;;;;;;;17.09;88.16;100528.27;102202;281;119929;-57
2023/06/15 05:57:56;;;;;;;10.90;9.40;;;;;;;17.46;88.50;100525.55;102306;280;105812;-58
2023/06/15 06:00:31;;;;;;;9.80;8.80;;;;;;;18.72;88.74;100527.54;102288;280;113492;-59
2023/06/15 06:03:08;;;;;;;11.10;9.70;;;;;;;19.32;86.35;100519.12;102285;280;93274;-59
2023/06/15 06:05:42;;;;;;;10.80;9.70;;;;;;;19.29;85.13;100522.61;102295;281;96505;-57
2023/06/15 06:08:17;;;;;;;10.50;9.40;;;;;;;19.52;84.67;100524.91;102292;280;121146;-56
2023/06/15 06:10:54;;;;;;;11.60;9.40;;;;;;;20.02;84.48;100521.32;102178;281;105650;-57
2023/06/15 06:13:34;;;;;;;10.10;9.10;;;;;;;21.57;83.42;100517.94;102296;280;113827;-57
2023/06/15 06:16:06;;;;;;;9.60;8.70;;;;;;;22.36;82.38;100516.98;102302;280;97152;-61
2023/06/15 06:18:37;;;;;;;9.50;8.60;;;;;;;23.36;80.44;100514.25;102313;281;96604;-60
2023/06/15 06:21:15;;;;;;;9.50;8.60;;;;;;;23.11;77.94;100517.00;102335;280;121042;-57
2023/06/15 06:23:57;;;;;;;9.90;8.90;;;;;;;22.37;76.88;100520.90;102300;280;105357;-56
2023/06/15 06:26:35;;;;;;;10.00;9.00;;;;;;;22.55;76.20;100525.73;102203;281;115423;-56
2023/06/15 06:29:11;;;;;;;9.60;8.30;;;;;;;22.53;74.92;100529.91;102353;280;92227;-57
2023/06/15 06:31:47;;;;;;;10.20;8.40;;;;;;;21.96;74.19;100531.89;102358;280;97874;-60
2023/06/15 06:34:25;;;;;;;15.50;10.40;;;;;;;21.61;73.37;100533.59;102397;280;119091;-64
2023/06/15 06:36:58;;;;;;;8.70;7.80;;;;;;;22.00;73.80;100533.77;102364;280;103624;-65
2023/06/15 06:39:33;;;;;;;9.00;8.00;;;;;;;24.13;72.46;100530.41;102377;280;115161;-65
2023/06/15 06:42:09;;;;;;;8.00;7.30;;;;;;;26.23;68.82;100527.44;102367;280;94982;-64
2023/06/15 06:44:45;;;;;;;8.50;7.60;;;;;;;27.43;65.70;100529.30;102217;281;96043;-64
2023/06/15 06:47:24;;;;;;;8.60;7.70;;;;;;;28.41;64.29;100522.27;102312;280;120769;-65
2023/06/15 06:50:10;;;;;;;8.60;7.30;;;;;;;28.72;60.61;100524.92;102344;280;105876;-64
2023/06/15 06:52:42;;;;;;;7.60;6.20;;;;;;;28.62;60.07;100526.58;102226;280;114439;-60
2023/06/15 06:55:17;;;;;;;6.80;5.70;;;;;;;29.57;58.17;100524.98;102310;280;93839;-59
2023/06/15 06:57:54;;;;;;;6.70;6.10;;;;;;;30.22;55.19;100519.48;102319;280;96687;-60
2023/06/15 07:00:29;;;;;;;5.20;4.70;;;;;;;30.89;54.34;100518.02;102325;280;119563;-59
2023/06/15 07:03:01;;;;;;;4.80;4.30;;;;;;;31.58;52.25;100514.02;102223;280;105613;-60
2023/06/15 07:05:38;;;;;;;4.90;4.40;;;;;;;32.02;50.33;100506.04;102311;280;114170;-60
2023/06/15 07:08:13;;;;;;;4.80;4.20;;;;;;;32.67;49.78;100504.19;102313;280;95048;-58
2023/06/15 07:10:49;;;;;;;7.60;4.40;;;;;;;33.49;47.66;100502.22;102365;280;97861;-61
2023/06/15 07:13:23;;;;;;;4.50;4.00;;;;;;;32.80;44.66;100507.78;102301;280;120011;-60
2023/06/15 07:15:59;;;;;;;4.40;4.00;;;;;;;30.39;46.05;100516.84;102271;280;104093;-60
2023/06/15 07:18:37;;;;;;;4.30;3.90;;;;;;;28.14;47.37;100522.08;102343;280;114687;-61
2023/06/15 07:21:14;;;;;;;5.20;4.20;;;;;;;26.75;48.97;100522.23;102343;280;93895;-61
2023/06/15 07:23:55;;;;;;;4.90;4.30;;;;;;;25.73;50.72;100520.75;102350;280;97460;-61
2023/06/15 07:26:30;;;;;;;5.00;4.50;;;;;;;24.90;52.16;100517.41;102328;280;121275;-61
2023/06/15 07:29:04;;;;;;;4.60;4.20;;;;;;;25.40;53.70;100512.39;102352;280;105100;-60
2023/06/15 07:31:37;;;;;;;6.30;4.10;;;;;;;27.44;53.80;100510.41;102309;280;113874;-57
2023/06/15 07:34:17;;;;;;;3.80;3.40;;;;;;;27.63;52.30;100515.04;102341;280;93886;-56
2023/06/15 07:37:01;;;;;;;5.90;4.70;;;;;;;27.47;51.06;100514.48;102322;280;97989;-57
2023/06/15 07:39:36;;;;;;;4.50;4.00;;;;;;;27.99;50.77;100508.61;102254;281;120198;-57
2023/06/15 07:42:10;;;;;;;7.60;4.40;;;;;;;29.15;49.58;100506.54;102377;280;105930;-58
2023/06/15 07:44:49;;;;;;;5.60;4.30;;;;;;;29.51;47.51;100507.35;102260;280;113318;-60
2023/06/15 07:47:24;;;;;;;6.10;4.40;;;;;;;30.04;46.54;100507.38;102310;280;93239;-59
2023/06/15 07:50:06;;;;;;;;;;;;;;;30.20;45.51;100509.82;102348;280;98644;-60
2023/06/15 07:52:44;;;;;;;4.30;3.50;;;;;;;28.69;45.41;100511.64;102376;280;120357;-60
2023/06/15 07:55:22;;;;;;;4.40;3.90;;;;;;;27.32;46.41;100517.32;102409;280;105350;-60
2023/06/15 07:58:00;;;;;;;4.50;4.10;;;;;;;26.37;48.46;100514.71;102349;280;112370;-60
2023/06/15 08:00:38;;;;;;;4.70;3.90;;;;;;;25.63;49.32;100516.27;102327;280;94227;-57
2023/06/15 08:03:22;;;;;;;5.00;3.90;;;;;;;25.30;50.24;100520.96;102187;280;97425;-57
2023/06/15 08:06:00;;;;;;;4.70;3.90;;;;;;;26.64;51.43;100517.80;102317;280;121064;-59
2023/06/15 08:08:35;;;;;;;4.90;4.30;;;;;;;27.19;50.19;100516.09;102362;280;105837;-59
2023/06/15 08:11:16;;;;;;;4.80;4.20;;;;;;;26.51;49.50;100517.86;102185;281;114558;-65
2023/06/15 08:14:00;;;;;;;6.00;4.90;;;;;;;25.86;50.00;100516.14;102299;280;93785;-66
2023/06/15 08:16:37;;;;;;;7.70;4.60;;;;;;;25.22;50.78;100515.27;102310;280;95913;-65
2023/06/15 08:19:08;;;;;;;5.90;4.40;;;;;;;24.59;52.04;100514.75;102319;280;120856;-65
2023/06/15 08:21:50;;;;;;;5.10;4.60;;;;;;;25.00;53.83;100508.67;102301;280;105033;-64
2023/06/15 08:24:32;;;;;;;5.40;4.80;;;;;;;26.86;52.88;100506.00;102315;281;115003;-66
2023/06/15 08:27:10;;;;;;;9.70;4.70;;;;;;;28.25;50.55;100500.27;102340;280;94293;-65
2023/06/15 08:29:44;;;;;;;6.20;4.90;;;;;;;28.80;48.74;100500.30;102330;281;96884;-65
2023/06/15 08:32:22;;;;;;;6.10;4.50;;;;;;;28.50;47.72;100497.55;102325;280;121861;-65
2023/06/15 08:34:58;;;;;;;4.70;4.30;;;;;;;28.34;47.29;100493.05;102276;280;105173;-65
2023/06/15 08:37:34;;;;;;;4.20;3.80;;;;;;;27.74;47.39;100496.45;102327;280;114977;-65
2023/06/15 08:40:10;;;;;;;4.70;4.10;;;;;;;27.32;47.54;100506.38;102302;281;93272;-65
2023/06/15 08:42:50;;;;;;;5.80;4.30;;;;;;;26.90;47.19;100508.20;102332;280;96391;-67
2023/06/15 08:45:36;;;;;;;5.50;4.20;;;;;;;26.24;47.73;100505.69;102367;269;120285;-65
2023/06/15 08:48:16;;;;;;;5.20;4.10;;;;;;;25.67;48.19;100503.64;102330;280;104906;-65
2023/06/15 08:50:51;;;;;;;5.30;4.70;;;;;;;24.82;48.83;100501.38;102389;280;113434;-65
2023/06/15 08:53:35;;;;;;;4.60;4.20;;;;;;;24.48;48.84;100498.63;102209;282;94234;-64
2023/06/15 08:56:12;;;;;;;4.30;3.90;;;;;;;24.17;49.73;100496.81;102359;280;95851;-65
2023/06/15 08:58:49;;;;;;;4.30;3.90;;;;;;;23.98;50.17;100492.22;102331;280;120779;-64
2023/06/15 09:01:25;;;;;;;5.50;3.90;;;;;;;24.45;50.23;100491.45;102346;281;104709;-66
2023/06/15 09:04:05;;;;;;;4.60;3.70;;;;;;;24.82;51.09;100486.14;102336;280;114283;-65
2023/06/15 09:06:42;;;;;;;5.50;4.10;;;;;;;25.52;50.49;100481.38;102286;280;94098;-65
2023/06/15 09:09:18;;;;;;;5.10;3.80;;;;;;;26.00;50.36;100487.81;102357;280;96722;-64
2023/06/15 09:11:54;;;;;;;5.40;4.00;;;;;;;25.54;48.77;100487.22;102341;281;120462;-65
2023/06/15 09:14:39;;;;;;;6.00;3.50;;;;;;;25.14;49.23;100486.47;102366;281;105415;-65
2023/06/15 09:17:19;;;;;;;5.10;3.60;;;;;;;25.10;49.39;100484.42;102395;281;113794;-66
2023/06/15 09:19:58;;;;;;;6.40;4.60;;;;;;;24.73;50.10;100487.76;102337;280;94464;-65
2023/06/15 09:22:43;;;;;;;4.50;4.10;;;;;;;24.85;51.37;100490.06;102403;281;98860;-66
2023/06/15 09:25:19;;;;;;;5.70;4.10;;;;;;;24.83;51.13;100488.79;102370;281;120469;-65
2023/06/15 09:27:58;;;;;;;4.20;3.70;;;;;;;24.76;51.22;100488.23;102283;280;103482;-65
2023/06/15 09:30:33;;;;;;;5.10;4.50;;;;;;;24.69;51.03;100486.76;102346;280;112647;-66
2023/06/15 09:33:15;;;;;;;4.40;3.60;;;;;;;24.85;51.22;100482.58;102314;280;94317;-65
2023/06/15 09:36:02;;;;;;;5.60;4.20;;;;;;;25.19;50.88;100486.52;102345;280;97881;-67
2023/06/15 09:38:45;;;;;;;6.10;4.00;;;;;;;25.18;50.53;100482.31;102318;280;120360;-66
2023/06/15 09:41:20;;;;;;;4.10;3.70;;;;;;;24.97;50.25;100486.21;102316;280;105881;-67
2023/06/15 09:43:56;;;;;;;4.60;4.10;;;;;;;25.20;50.99;100483.91;102351;281;113738;-66
2023/06/15 09:46:38;;;;;;;4.30;3.90;;;;;;;25.55;51.48;100480.09;102349;281;93529;-65
2023/06/15 09:49:22;;;;;;;4.50;3.80;;;;;;;25.86;50.44;100476.73;102410;281;98087;-65
2023/06/15 09:52:00;;;;;;;5.60;3.70;;;;;;;26.10;50.66;100479.15;102417;280;120176;-66
2023/06/15 09:54:34;;;;;;;5.80;3.80;;;;;;;26.19;49.87;100482.20;102376;280;103716;-66
2023/06/15 09:57:06;;;;;;;;;;;;;;;25.94;49.58;100478.05;102358;280;114078;-65
2023/06/15 09:59:45;;;;;;;6.80;3.60;;;;;;;25.72;50.23;100477.73;102325;280;93432;-65
2023/06/15 10:02:28;;;;;;;4.30;3.90;;;;;;;25.40;49.77;100480.05;102343;281;96808;-65
2023/06/15 10:05:12;;;;;;;5.00;4.50;;;;;;;24.98;49.39;100481.67;102319;281;120469;-57
2023/06/15 10:07:49;;;;;;;;;;;;;;;24.59;50.48;100480.48;102327;280;105675;-56
2023/06/15 10:10:34;;;;;;;4.30;3.90;;;;;;;24.17;51.44;100480.80;102337;280;112631;-57
2023/06/15 10:13:14;;;;;;;5.00;4.60;;;;;;;23.80;51.47;100484.69;102211;280;94220;-57
2023/06/15 10:15:55;;;;;;;5.30;4.60;;;;;;;23.39;51.46;100486.30;102345;280;98236;-58
2023/06/15 10:18:29;;;;;;;4.70;4.30;;;;;;;23.13;51.98;100484.10;102363;281;118983;-59
2023/06/15 10:21:04;;;;;;;8.00;4.80;;;;;;;23.09;52.46;100486.95;102364;280;104932;-62
2023/06/15 10:23:42;;;;;;;7.60;4.20;;;;;;;23.27;52.88;100479.14;102366;280;114061;-61
2023/06/15 10:26:15;;;;;;;5.40;4.80;;;;;;;23.52;52.89;100480.98;102406;280;94635;-57
2023/06/15 10:28:59;;;;;;;5.20;4.80;;;;;;;23.47;52.29;100477.35;102305;280;98297;-58
2023/06/15 10:31:41;;;;;;;5.00;4.50;;;;;;;23.19;52.47;100480.81;102328;280;119920;-59
2023/06/15 10:34:25;;;;;;;5.10;4.50;;;;;;;22.89;53.22;100487.02;102313;281;103857;-58
2023/06/15 10:37:12;;;;;;;6.30;5.70;;;;;;;22.58;53.50;100494.92;102320;280;112882;-60
2023/06/15 10:39:56;;;;;;;8.50;6.90;;;;;;;22.07;55.48;100501.35;102319;280;95281;-60
2023/06/15 10:42:46;;;;;;;9.60;7.10;;;;;;;21.59;57.69;100495.69;102371;280;97075;-62
2023/06/15 10:45:31;;;;;;;10.00;7.80;;;;;;;21.23;59.57;100489.56;102309;280;120862;-61
2023/06/15 10:48:05;;;;;;;10.70;7.50;;;;;;;21.15;60.98;100499.76;102306;280;105536;-62
2023/06/15 10:50:51;;;;;;;9.30;8.20;;;;;;;21.18;62.82;100494.13;102344;280;114230;-61
2023/06/15 10:53:37;;;;;;;10.80;8.90;;;;;;;21.69;63.76;100493.70;102332;280;96027;-60
2023/06/15 10:56:23;;;;;;;10.00;9.10;;;;;;;22.35;64.91;100491.71;102379;280;97364;-57
2023/06/15 10:59:00;;;;;;;9.00;8.10;;;;;;;22.91;65.71;100490.77;102324;280;119560;-57
2023/06/15 11:01:33;;;;;;;8.50;7.70;;;;;;;23.17;64.66;100478.10;102341;280;104781;-59
2023/06/15 11:04:39;;;;;;;8.00;7.20;;;;;;;23.30;63.63;100479.14;102295;280;113559;-60
2023/06/15 11:07:28;;;;;;;7.00;6.40;;;;;;;23.43;63.86;100473.47;102342;280;92367;-56
2023/06/15 11:10:13;;;;;;;8.10;7.20;;;;;;;23.19;63.48;100473.81;102288;280;98694;-57
2023/06/15 11:12:46;;;;;;;7.90;7.10;;;;;;;22.64;63.01;100479.76;102310;280;120966;-56
2023/06/15 11:15:33;;;;;;;8.30;7.50;;;;;;;22.03;63.37;100481.77;102408;280;103647;-60
2023/06/15 11:18:13;;;;;;;8.00;7.20;;;;;;;21.60;64.80;100480.20;101794;282;654889;-59
2023/06/15 11:21:02;;;;;;;7.70;7.00;;;;;;;21.68;65.96;100479.16;102295;280;93823;-57
2023/06/15 11:23:45;;;;;;;8.70;7.80;;;;;;;22.13;65.80;100474.42;102327;280;97615;-59
2023/06/15 11:26:16;;;;;;;8.00;7.20;;;;;;;22.49;65.97;100467.70;102386;280;119683;-57
2023/06/15 11:28:57;;;;;;;8.50;7.70;;;;;;;22.54;65.15;100472.23;102363;280;105799;-60
2023/06/15 11:31:38;;;;;;;7.80;6.70;;;;;;;22.71;64.83;100471.00;102311;280;113720;-57
2023/06/15 11:34:13;;;;;;;8.30;6.90;;;;;;;22.97;64.07;100467.43;102290;280;93578;-56
2023/06/15 11:36:59;;;;;;;7.70;7.00;;;;;;;23.15;63.17;100467.13;102355;280;96383;-57
2023/06/15 11:39:33;;;;;;;8.50;6.90;;;;;;;23.34;63.26;100466.48;102357;280;119914;-57
2023/06/15 11:42:09;;;;;;;9.00;6.90;;;;;;;23.45;63.14;100467.58;102409;280;104840;-58
2023/06/15 11:44:45;;;;;;;7.90;7.20;;;;;;;23.53;63.41;100465.05;102359;280;113994;-57
2023/06/15 11:47:21;;;;;;;10.50;7.10;;;;;;;23.65;63.43;100466.89;102368;280;94539;-56
2023/06/15 11:50:06;;;;;;;6.80;6.00;;;;;;;23.78;62.05;100465.54;102399;280;99094;-58
2023/06/15 11:52:45;;;;;;;7.00;5.50;;;;;;;23.64;61.67;100470.75;102378;280;119785;-58
2023/06/15 11:55:19;;;;;;;7.60;5.30;;;;;;;23.37;61.06;100469.85;102396;280;104464;-57
2023/06/15 11:57:51;;;;;;;6.00;5.30;;;;;;;23.45;60.57;100463.66;102306;280;114158;-57
2023/06/15 12:00:23;;;;;;;6.60;5.40;;;;;;;23.69;60.72;100466.84;102326;280;94912;-59
2023/06/15 12:03:01;;;;;;;5.10;4.50;;;;;;;23.88;60.69;100469.03;102398;281;97458;-58
2023/06/15 12:05:37;;;;;;;4.90;4.50;;;;;;;23.76;60.17;100464.53;102343;280;121343;-57
2023/06/15 12:08:11;;;;;;;7.30;5.60;;;;;;;23.68;60.01;100464.81;102311;280;105363;-64
2023/06/15 12:10:44;;;;;;;6.50;5.70;;;;;;;23.85;59.29;100461.95;102362;280;114752;-62